sensor_id;sensor_type;location;lat;lon;timestamp;P1;durP1;ratioP1;P2;durP2;ratioP2
8913;SDS011;4492;48.736;9.092;2023-06-22T00:01:27;11.20;;;7.67;;
8913;SDS011;4492;48.736;9.092;2023-06-22T00:03:53;12.63;;;7.60;;
8913;SDS011;4492;48.736;9.092;2023-06-22T00:06:18;7.77;;;7.07;;
8913;SDS011;4492;48.736;9.092;2023-06-22T00:08:44;10.30;;;7.83;;
8913;SDS011;4492;48.736;9.092;2023-06-22T00:11:09;9.13;;;8.10;;
8913;SDS011;4492;48.736;9.092;2023-06-22T00:13:35;9.43;;;7.33;;
8913;SDS011;4492;48.736;9.092;2023-06-22T00:16:00;8.47;;;7.57;;
8913;SDS011;4492;48.736;9.092;2023-06-22T00:18:26;10.67;;;7.77;;
8913;SDS011;4492;48.736;9.092;2023-06-22T00:20:53;10.23;;;7.93;;
8913;SDS011;4492;48.736;9.092;2023-06-22T00:23:22;12.13;;;7.90;;
8913;SDS011;4492;48.736;9.092;2023-06-22T00:25:48;8.67;;;7.70;;
8913;SDS011;4492;48.736;9.092;2023-06-22T00:28:14;10.53;;;7.70;;
8913;SDS011;4492;48.736;9.092;2023-06-22T00:30:40;9.90;;;7.57;;
8913;SDS011;4492;48.736;9.092;2023-06-22T00:33:06;7.90;;;7.20;;
8913;SDS011;4492;48.736;9.092;2023-06-22T00:35:32;13.03;;;8.37;;
8913;SDS011;4492;48.736;9.092;2023-06-22T00:37:59;8.23;;;7.33;;
8913;SDS011;4492;48.736;9.092;2023-06-22T00:40:29;11.57;;;8.00;;
8913;SDS011;4492;48.736;9.092;2023-06-22T00:42:56;10.67;;;8.00;;
8913;SDS011;4492;48.736;9.092;2023-06-22T00:45:22;9.30;;;7.77;;
8913;SDS011;4492;48.736;9.092;2023-06-22T00:47:48;19.73;;;12.27;;
8913;SDS011;4492;48.736;9.092;2023-06-22T00:50:19;13.43;;;9.37;;
8913;SDS011;4492;48.736;9.092;2023-06-22T00:52:53;8.90;;;8.00;;
8913;SDS011;4492;48.736;9.092;2023-06-22T00:55:23;10.23;;;8.73;;
8913;SDS011;4492;48.736;9.092;2023-06-22T00:57:50;9.83;;;8.20;;
8913;SDS011;4492;48.736;9.092;2023-06-22T01:00:20;9.83;;;7.50;;
8913;SDS011;4492;48.736;9.092;2023-06-22T01:02:49;8.80;;;7.67;;
8913;SDS011;4492;48.736;9.092;2023-06-22T01:05:18;11.20;;;7.97;;
8913;SDS011;4492;48.736;9.092;2023-06-22T01:07:51;10.70;;;8.37;;
8913;SDS011;4492;48.736;9.092;2023-06-22T01:12:57;8.10;;;7.30;;
8913;SDS011;4492;48.736;9.092;2023-06-22T01:15:33;9.70;;;8.30;;
8913;SDS011;4492;48.736;9.092;2023-06-22T01:18:33;13.90;;;8.77;;
8913;SDS011;4492;48.736;9.092;2023-06-22T01:21:02;10.30;;;8.20;;
8913;SDS011;4492;48.736;9.092;2023-06-22T01:23:40;8.47;;;7.67;;
8913;SDS011;4492;48.736;9.092;2023-06-22T01:29:07;9.43;;;8.30;;
8913;SDS011;4492;48.736;9.092;2023-06-22T01:31:36;10.23;;;7.10;;
8913;SDS011;4492;48.736;9.092;2023-06-22T01:34:05;9.83;;;8.10;;
8913;SDS011;4492;48.736;9.092;2023-06-22T01:36:32;8.63;;;7.73;;
8913;SDS011;4492;48.736;9.092;2023-06-22T01:38:58;10.30;;;8.67;;
8913;SDS011;4492;48.736;9.092;2023-06-22T01:41:25;11.00;;;7.90;;
8913;SDS011;4492;48.736;9.092;2023-06-22T01:43:52;10.63;;;8.00;;
8913;SDS011;4492;48.736;9.092;2023-06-22T01:46:19;8.67;;;7.73;;
8913;SDS011;4492;48.736;9.092;2023-06-22T01:48:46;12.47;;;8.53;;
8913;SDS011;4492;48.736;9.092;2023-06-22T01:51:12;9.20;;;7.40;;
8913;SDS011;4492;48.736;9.092;2023-06-22T01:53:38;9.63;;;7.53;;
8913;SDS011;4492;48.736;9.092;2023-06-22T01:56:04;10.57;;;7.53;;
8913;SDS011;4492;48.736;9.092;2023-06-22T01:58:30;8.90;;;8.03;;
8913;SDS011;4492;48.736;9.092;2023-06-22T02:01:09;11.47;;;8.60;;
8913;SDS011;4492;48.736;9.092;2023-06-22T02:03:43;11.20;;;8.90;;
8913;SDS011;4492;48.736;9.092;2023-06-22T02:06:14;11.50;;;9.40;;
8913;SDS011;4492;48.736;9.092;2023-06-22T02:08:47;12.27;;;9.10;;
8913;SDS011;4492;48.736;9.092;2023-06-22T02:11:16;9.73;;;8.83;;
8913;SDS011;4492;48.736;9.092;2023-06-22T02:13:45;10.47;;;8.80;;
8913;SDS011;4492;48.736;9.092;2023-06-22T02:16:11;14.13;;;9.53;;
8913;SDS011;4492;48.736;9.092;2023-06-22T02:18:38;11.73;;;8.47;;
8913;SDS011;4492;48.736;9.092;2023-06-22T02:21:05;9.40;;;8.37;;
8913;SDS011;4492;48.736;9.092;2023-06-22T02:23:31;8.40;;;7.27;;
8913;SDS011;4492;48.736;9.092;2023-06-22T02:25:59;11.73;;;8.87;;
8913;SDS011;4492;48.736;9.092;2023-06-22T02:28:25;9.87;;;8.83;;
8913;SDS011;4492;48.736;9.092;2023-06-22T02:30:51;11.20;;;9.40;;
8913;SDS011;4492;48.736;9.092;2023-06-22T02:33:16;9.53;;;8.10;;
8913;SDS011;4492;48.736;9.092;2023-06-22T02:35:42;9.77;;;8.70;;
8913;SDS011;4492;48.736;9.092;2023-06-22T02:38:10;11.80;;;8.53;;
8913;SDS011;4492;48.736;9.092;2023-06-22T02:40:36;9.27;;;8.33;;
8913;SDS011;4492;48.736;9.092;2023-06-22T02:43:01;9.60;;;8.60;;
8913;SDS011;4492;48.736;9.092;2023-06-22T02:45:27;11.37;;;9.43;;
8913;SDS011;4492;48.736;9.092;2023-06-22T02:47:53;10.00;;;8.77;;
8913;SDS011;4492;48.736;9.092;2023-06-22T02:50:20;10.40;;;8.87;;
8913;SDS011;4492;48.736;9.092;2023-06-22T02:52:45;12.43;;;9.33;;
8913;SDS011;4492;48.736;9.092;2023-06-22T02:55:11;11.43;;;9.60;;
8913;SDS011;4492;48.736;9.092;2023-06-22T02:57:37;11.20;;;9.60;;
8913;SDS011;4492;48.736;9.092;2023-06-22T03:00:03;14.20;;;10.57;;
8913;SDS011;4492;48.736;9.092;2023-06-22T03:02:41;14.10;;;10.47;;
8913;SDS011;4492;48.736;9.092;2023-06-22T03:05:07;12.87;;;10.37;;
8913;SDS011;4492;48.736;9.092;2023-06-22T03:07:34;14.23;;;11.67;;
8913;SDS011;4492;48.736;9.092;2023-06-22T03:10:01;11.87;;;10.33;;
8913;SDS011;4492;48.736;9.092;2023-06-22T03:12:27;12.10;;;10.03;;
8913;SDS011;4492;48.736;9.092;2023-06-22T03:14:52;12.07;;;10.70;;
8913;SDS011;4492;48.736;9.092;2023-06-22T03:17:18;12.17;;;10.70;;
8913;SDS011;4492;48.736;9.092;2023-06-22T03:19:43;11.53;;;10.33;;
8913;SDS011;4492;48.736;9.092;2023-06-22T03:22:09;10.60;;;9.60;;
8913;SDS011;4492;48.736;9.092;2023-06-22T03:24:34;12.27;;;10.10;;
8913;SDS011;4492;48.736;9.092;2023-06-22T03:27:02;11.70;;;10.03;;
8913;SDS011;4492;48.736;9.092;2023-06-22T03:29:29;11.43;;;9.87;;
8913;SDS011;4492;48.736;9.092;2023-06-22T03:31:55;11.63;;;10.37;;
8913;SDS011;4492;48.736;9.092;2023-06-22T03:34:20;12.20;;;9.97;;
8913;SDS011;4492;48.736;9.092;2023-06-22T03:36:46;12.90;;;9.80;;
8913;SDS011;4492;48.736;9.092;2023-06-22T03:39:11;12.37;;;9.80;;
8913;SDS011;4492;48.736;9.092;2023-06-22T03:41:37;11.40;;;9.73;;
8913;SDS011;4492;48.736;9.092;2023-06-22T03:44:03;16.37;;;10.30;;
8913;SDS011;4492;48.736;9.092;2023-06-22T03:46:29;13.77;;;10.67;;
8913;SDS011;4492;48.736;9.092;2023-06-22T03:48:55;13.23;;;10.23;;
8913;SDS011;4492;48.736;9.092;2023-06-22T03:51:20;14.13;;;9.60;;
8913;SDS011;4492;48.736;9.092;2023-06-22T03:53:45;11.53;;;10.00;;
8913;SDS011;4492;48.736;9.092;2023-06-22T03:56:11;13.50;;;9.30;;
8913;SDS011;4492;48.736;9.092;2023-06-22T03:58:36;10.67;;;9.47;;
8913;SDS011;4492;48.736;9.092;2023-06-22T04:01:07;12.30;;;8.90;;
8913;SDS011;4492;48.736;9.092;2023-06-22T04:03:36;10.67;;;9.53;;
8913;SDS011;4492;48.736;9.092;2023-06-22T04:06:02;10.00;;;8.80;;
8913;SDS011;4492;48.736;9.092;2023-06-22T04:08:27;11.23;;;9.40;;
8913;SDS011;4492;48.736;9.092;2023-06-22T04:10:53;10.30;;;8.33;;
8913;SDS011;4492;48.736;9.092;2023-06-22T04:13:18;13.60;;;8.47;;
8913;SDS011;4492;48.736;9.092;2023-06-22T04:15:44;11.00;;;9.03;;
8913;SDS011;4492;48.736;9.092;2023-06-22T04:18:10;10.47;;;8.83;;
8913;SDS011;4492;48.736;9.092;2023-06-22T04:20:35;11.67;;;9.40;;
8913;SDS011;4492;48.736;9.092;2023-06-22T04:23:01;9.77;;;8.77;;
8913;SDS011;4492;48.736;9.092;2023-06-22T04:25:27;9.47;;;8.47;;
8913;SDS011;4492;48.736;9.092;2023-06-22T04:27:52;12.47;;;9.87;;
8913;SDS011;4492;48.736;9.092;2023-06-22T04:30:18;10.27;;;9.27;;
8913;SDS011;4492;48.736;9.092;2023-06-22T04:32:43;11.57;;;9.50;;
8913;SDS011;4492;48.736;9.092;2023-06-22T04:35:10;14.07;;;10.27;;
8913;SDS011;4492;48.736;9.092;2023-06-22T04:37:36;13.87;;;10.60;;
8913;SDS011;4492;48.736;9.092;2023-06-22T04:40:01;14.27;;;10.17;;
8913;SDS011;4492;48.736;9.092;2023-06-22T04:42:29;14.70;;;9.87;;
8913;SDS011;4492;48.736;9.092;2023-06-22T04:44:55;13.67;;;10.03;;
8913;SDS011;4492;48.736;9.092;2023-06-22T04:47:20;13.90;;;9.83;;
8913;SDS011;4492;48.736;9.092;2023-06-22T04:49:46;11.73;;;9.03;;
8913;SDS011;4492;48.736;9.092;2023-06-22T04:52:12;11.57;;;9.17;;
8913;SDS011;4492;48.736;9.092;2023-06-22T04:54:39;9.13;;;8.03;;
8913;SDS011;4492;48.736;9.092;2023-06-22T04:57:13;9.90;;;8.67;;
8913;SDS011;4492;48.736;9.092;2023-06-22T04:59:39;11.47;;;8.67;;
8913;SDS011;4492;48.736;9.092;2023-06-22T05:02:06;9.77;;;8.03;;
8913;SDS011;4492;48.736;9.092;2023-06-22T05:04:32;14.07;;;9.23;;
8913;SDS011;4492;48.736;9.092;2023-06-22T05:07:00;7.83;;;7.03;;
8913;SDS011;4492;48.736;9.092;2023-06-22T05:09:27;9.67;;;8.53;;
8913;SDS011;4492;48.736;9.092;2023-06-22T05:11:53;9.60;;;8.30;;
8913;SDS011;4492;48.736;9.092;2023-06-22T05:14:19;12.10;;;8.83;;
8913;SDS011;4492;48.736;9.092;2023-06-22T05:16:45;10.27;;;7.93;;
8913;SDS011;4492;48.736;9.092;2023-06-22T05:19:11;12.37;;;8.40;;
8913;SDS011;4492;48.736;9.092;2023-06-22T05:21:37;11.67;;;9.30;;
8913;SDS011;4492;48.736;9.092;2023-06-22T05:24:03;12.90;;;9.00;;
8913;SDS011;4492;48.736;9.092;2023-06-22T05:26:29;8.63;;;7.77;;
8913;SDS011;4492;48.736;9.092;2023-06-22T05:28:56;12.50;;;8.57;;
8913;SDS011;4492;48.736;9.092;2023-06-22T05:31:22;10.87;;;8.30;;
8913;SDS011;4492;48.736;9.092;2023-06-22T05:33:49;11.60;;;8.33;;
8913;SDS011;4492;48.736;9.092;2023-06-22T05:36:16;9.20;;;7.93;;
8913;SDS011;4492;48.736;9.092;2023-06-22T05:38:43;10.90;;;7.90;;
8913;SDS011;4492;48.736;9.092;2023-06-22T05:41:09;9.80;;;8.57;;
8913;SDS011;4492;48.736;9.092;2023-06-22T05:43:34;8.80;;;7.47;;
8913;SDS011;4492;48.736;9.092;2023-06-22T05:46:00;9.90;;;7.73;;
8913;SDS011;4492;48.736;9.092;2023-06-22T05:48:27;9.93;;;7.10;;
8913;SDS011;4492;48.736;9.092;2023-06-22T05:50:52;7.43;;;6.53;;
8913;SDS011;4492;48.736;9.092;2023-06-22T05:53:18;10.13;;;7.17;;
8913;SDS011;4492;48.736;9.092;2023-06-22T05:55:44;9.80;;;7.40;;
8913;SDS011;4492;48.736;9.092;2023-06-22T05:58:10;6.63;;;6.03;;
8913;SDS011;4492;48.736;9.092;2023-06-22T06:00:35;11.40;;;7.83;;
8913;SDS011;4492;48.736;9.092;2023-06-22T06:03:01;8.73;;;7.83;;
8913;SDS011;4492;48.736;9.092;2023-06-22T06:05:31;8.47;;;7.07;;
8913;SDS011;4492;48.736;9.092;2023-06-22T06:07:59;10.90;;;7.53;;
8913;SDS011;4492;48.736;9.092;2023-06-22T06:10:25;11.53;;;7.63;;
8913;SDS011;4492;48.736;9.092;2023-06-22T06:12:50;9.57;;;8.03;;
8913;SDS011;4492;48.736;9.092;2023-06-22T06:15:16;8.13;;;6.40;;
8913;SDS011;4492;48.736;9.092;2023-06-22T06:17:46;11.50;;;7.20;;
8913;SDS011;4492;48.736;9.092;2023-06-22T06:20:17;10.17;;;7.13;;
8913;SDS011;4492;48.736;9.092;2023-06-22T06:22:44;10.17;;;7.47;;
8913;SDS011;4492;48.736;9.092;2023-06-22T06:25:09;8.17;;;6.70;;
8913;SDS011;4492;48.736;9.092;2023-06-22T06:27:40;12.93;;;7.73;;
8913;SDS011;4492;48.736;9.092;2023-06-22T06:30:10;9.33;;;6.60;;
8913;SDS011;4492;48.736;9.092;2023-06-22T06:32:37;11.20;;;7.47;;
8913;SDS011;4492;48.736;9.092;2023-06-22T06:35:03;8.70;;;7.00;;
8913;SDS011;4492;48.736;9.092;2023-06-22T06:37:30;11.83;;;7.77;;
8913;SDS011;4492;48.736;9.092;2023-06-22T06:39:56;7.70;;;5.80;;
8913;SDS011;4492;48.736;9.092;2023-06-22T06:42:21;7.77;;;6.97;;
8913;SDS011;4492;48.736;9.092;2023-06-22T06:44:49;8.70;;;6.20;;
8913;SDS011;4492;48.736;9.092;2023-06-22T06:47:15;8.20;;;6.83;;
8913;SDS011;4492;48.736;9.092;2023-06-22T06:49:41;8.53;;;5.87;;
8913;SDS011;4492;48.736;9.092;2023-06-22T06:52:07;7.53;;;6.00;;
8913;SDS011;4492;48.736;9.092;2023-06-22T06:54:33;11.67;;;6.57;;
8913;SDS011;4492;48.736;9.092;2023-06-22T06:56:58;8.03;;;6.20;;
8913;SDS011;4492;48.736;9.092;2023-06-22T06:59:24;7.83;;;6.07;;
8913;SDS011;4492;48.736;9.092;2023-06-22T07:01:49;9.00;;;6.23;;
8913;SDS011;4492;48.736;9.092;2023-06-22T07:04:15;7.83;;;6.53;;
8913;SDS011;4492;48.736;9.092;2023-06-22T07:06:40;9.60;;;6.47;;
8913;SDS011;4492;48.736;9.092;2023-06-22T07:09:07;8.73;;;6.50;;
8913;SDS011;4492;48.736;9.092;2023-06-22T07:11:33;10.03;;;6.77;;
8913;SDS011;4492;48.736;9.092;2023-06-22T07:14:00;10.27;;;5.63;;
8913;SDS011;4492;48.736;9.092;2023-06-22T07:16:26;7.60;;;5.67;;
8913;SDS011;4492;48.736;9.092;2023-06-22T07:18:52;7.07;;;5.97;;
8913;SDS011;4492;48.736;9.092;2023-06-22T07:21:18;12.07;;;6.90;;
8913;SDS011;4492;48.736;9.092;2023-06-22T07:23:43;10.47;;;5.97;;
8913;SDS011;4492;48.736;9.092;2023-06-22T07:26:09;6.47;;;5.43;;
8913;SDS011;4492;48.736;9.092;2023-06-22T07:28:34;11.50;;;5.83;;
8913;SDS011;4492;48.736;9.092;2023-06-22T07:31:02;9.50;;;6.13;;
8913;SDS011;4492;48.736;9.092;2023-06-22T07:33:29;7.87;;;6.00;;
8913;SDS011;4492;48.736;9.092;2023-06-22T07:35:55;6.90;;;6.00;;
8913;SDS011;4492;48.736;9.092;2023-06-22T07:38:20;7.67;;;5.30;;
8913;SDS011;4492;48.736;9.092;2023-06-22T07:40:46;5.33;;;4.50;;
8913;SDS011;4492;48.736;9.092;2023-06-22T07:43:11;8.87;;;5.17;;
8913;SDS011;4492;48.736;9.092;2023-06-22T07:45:37;7.27;;;5.20;;
8913;SDS011;4492;48.736;9.092;2023-06-22T07:48:05;6.53;;;5.47;;
8913;SDS011;4492;48.736;9.092;2023-06-22T07:50:30;6.77;;;5.60;;
8913;SDS011;4492;48.736;9.092;2023-06-22T07:52:56;5.63;;;5.13;;
8913;SDS011;4492;48.736;9.092;2023-06-22T07:55:21;7.43;;;5.47;;
8913;SDS011;4492;48.736;9.092;2023-06-22T07:57:48;5.90;;;4.50;;
8913;SDS011;4492;48.736;9.092;2023-06-22T08:00:14;6.97;;;4.70;;
8913;SDS011;4492;48.736;9.092;2023-06-22T08:02:41;5.90;;;4.97;;
8913;SDS011;4492;48.736;9.092;2023-06-22T08:05:08;9.97;;;5.07;;
8913;SDS011;4492;48.736;9.092;2023-06-22T08:07:35;6.97;;;5.33;;
8913;SDS011;4492;48.736;9.092;2023-06-22T08:10:02;7.83;;;4.80;;
8913;SDS011;4492;48.736;9.092;2023-06-22T08:12:28;9.20;;;4.97;;
8913;SDS011;4492;48.736;9.092;2023-06-22T08:14:54;8.43;;;5.67;;
8913;SDS011;4492;48.736;9.092;2023-06-22T08:17:19;7.77;;;5.67;;
8913;SDS011;4492;48.736;9.092;2023-06-22T08:19:45;7.53;;;4.90;;
8913;SDS011;4492;48.736;9.092;2023-06-22T08:22:10;7.80;;;5.30;;
8913;SDS011;4492;48.736;9.092;2023-06-22T08:24:35;8.80;;;5.20;;
8913;SDS011;4492;48.736;9.092;2023-06-22T08:27:01;6.30;;;5.17;;
8913;SDS011;4492;48.736;9.092;2023-06-22T08:29:26;7.38;;;5.50;;
8913;SDS011;4492;48.736;9.092;2023-06-22T08:31:52;9.93;;;5.63;;
8913;SDS011;4492;48.736;9.092;2023-06-22T08:34:17;10.30;;;5.73;;
8913;SDS011;4492;48.736;9.092;2023-06-22T08:36:46;7.95;;;5.53;;
8913;SDS011;4492;48.736;9.092;2023-06-22T08:39:16;9.52;;;5.63;;
8913;SDS011;4492;48.736;9.092;2023-06-22T08:41:42;6.50;;;5.00;;
8913;SDS011;4492;48.736;9.092;2023-06-22T08:44:07;9.50;;;4.72;;
8913;SDS011;4492;48.736;9.092;2023-06-22T08:46:33;11.00;;;5.10;;
8913;SDS011;4492;48.736;9.092;2023-06-22T08:48:59;7.60;;;5.53;;
8913;SDS011;4492;48.736;9.092;2023-06-22T08:51:24;9.85;;;5.53;;
8913;SDS011;4492;48.736;9.092;2023-06-22T08:53:50;7.85;;;5.47;;
8913;SDS011;4492;48.736;9.092;2023-06-22T08:56:16;7.30;;;5.13;;
8913;SDS011;4492;48.736;9.092;2023-06-22T08:58:41;8.00;;;5.30;;
8913;SDS011;4492;48.736;9.092;2023-06-22T09:01:07;8.48;;;5.57;;
8913;SDS011;4492;48.736;9.092;2023-06-22T09:03:32;9.57;;;6.05;;
8913;SDS011;4492;48.736;9.092;2023-06-22T09:06:01;10.63;;;5.70;;
8913;SDS011;4492;48.736;9.092;2023-06-22T09:08:26;8.73;;;5.90;;
8913;SDS011;4492;48.736;9.092;2023-06-22T09:10:52;9.13;;;5.22;;
8913;SDS011;4492;48.736;9.092;2023-06-22T09:13:17;9.65;;;5.88;;
8913;SDS011;4492;48.736;9.092;2023-06-22T09:15:43;10.02;;;5.57;;
8913;SDS011;4492;48.736;9.092;2023-06-22T09:18:12;10.25;;;5.78;;
8913;SDS011;4492;48.736;9.092;2023-06-22T09:20:38;7.93;;;5.43;;
8913;SDS011;4492;48.736;9.092;2023-06-22T09:23:04;8.02;;;5.68;;
8913;SDS011;4492;48.736;9.092;2023-06-22T09:25:29;8.88;;;5.72;;
8913;SDS011;4492;48.736;9.092;2023-06-22T09:27:55;10.88;;;5.93;;
8913;SDS011;4492;48.736;9.092;2023-06-22T09:30:21;7.80;;;5.90;;
8913;SDS011;4492;48.736;9.092;2023-06-22T09:32:47;9.20;;;5.90;;
8913;SDS011;4492;48.736;9.092;2023-06-22T09:35:12;8.27;;;5.70;;
8913;SDS011;4492;48.736;9.092;2023-06-22T09:37:38;11.43;;;6.25;;
8913;SDS011;4492;48.736;9.092;2023-06-22T09:40:05;7.85;;;6.05;;
8913;SDS011;4492;48.736;9.092;2023-06-22T09:42:35;10.38;;;6.13;;
8913;SDS011;4492;48.736;9.092;2023-06-22T09:45:01;10.55;;;5.85;;
8913;SDS011;4492;48.736;9.092;2023-06-22T09:47:26;9.88;;;6.00;;
8913;SDS011;4492;48.736;9.092;2023-06-22T09:49:52;9.13;;;6.20;;
8913;SDS011;4492;48.736;9.092;2023-06-22T09:52:20;8.25;;;6.03;;
8913;SDS011;4492;48.736;9.092;2023-06-22T09:54:46;11.20;;;6.38;;
8913;SDS011;4492;48.736;9.092;2023-06-22T09:57:11;8.02;;;5.90;;
8913;SDS011;4492;48.736;9.092;2023-06-22T09:59:37;10.85;;;6.00;;
8913;SDS011;4492;48.736;9.092;2023-06-22T10:02:05;9.27;;;6.50;;
8913;SDS011;4492;48.736;9.092;2023-06-22T10:04:31;7.93;;;5.68;;
8913;SDS011;4492;48.736;9.092;2023-06-22T10:06:56;12.40;;;6.20;;
8913;SDS011;4492;48.736;9.092;2023-06-22T10:09:22;7.00;;;5.82;;
8913;SDS011;4492;48.736;9.092;2023-06-22T10:11:47;6.82;;;6.00;;
8913;SDS011;4492;48.736;9.092;2023-06-22T10:14:13;11.38;;;6.30;;
8913;SDS011;4492;48.736;9.092;2023-06-22T10:16:38;6.43;;;5.72;;
8913;SDS011;4492;48.736;9.092;2023-06-22T10:19:06;8.57;;;6.25;;
8913;SDS011;4492;48.736;9.092;2023-06-22T10:21:31;7.90;;;5.80;;
8913;SDS011;4492;48.736;9.092;2023-06-22T10:23:57;9.40;;;5.72;;
8913;SDS011;4492;48.736;9.092;2023-06-22T10:26:24;11.02;;;5.82;;
8913;SDS011;4492;48.736;9.092;2023-06-22T10:28:51;13.55;;;7.07;;
8913;SDS011;4492;48.736;9.092;2023-06-22T10:31:16;8.98;;;6.15;;
8913;SDS011;4492;48.736;9.092;2023-06-22T10:33:42;6.93;;;5.97;;
8913;SDS011;4492;48.736;9.092;2023-06-22T10:36:08;10.00;;;6.53;;
8913;SDS011;4492;48.736;9.092;2023-06-22T10:38:35;8.15;;;6.28;;
8913;SDS011;4492;48.736;9.092;2023-06-22T10:41:00;9.68;;;6.40;;
8913;SDS011;4492;48.736;9.092;2023-06-22T10:43:26;7.65;;;6.05;;
8913;SDS011;4492;48.736;9.092;2023-06-22T10:45:51;10.05;;;6.07;;
8913;SDS011;4492;48.736;9.092;2023-06-22T10:48:17;13.13;;;6.90;;
8913;SDS011;4492;48.736;9.092;2023-06-22T10:50:42;7.32;;;6.28;;
8913;SDS011;4492;48.736;9.092;2023-06-22T10:53:08;11.32;;;6.05;;
8913;SDS011;4492;48.736;9.092;2023-06-22T10:55:33;10.52;;;6.20;;
8913;SDS011;4492;48.736;9.092;2023-06-22T10:57:59;9.52;;;6.20;;
8913;SDS011;4492;48.736;9.092;2023-06-22T11:00:24;7.78;;;6.05;;
8913;SDS011;4492;48.736;9.092;2023-06-22T11:02:50;10.30;;;6.43;;
8913;SDS011;4492;48.736;9.092;2023-06-22T11:05:15;7.80;;;5.88;;
8913;SDS011;4492;48.736;9.092;2023-06-22T11:07:41;10.38;;;6.15;;
8913;SDS011;4492;48.736;9.092;2023-06-22T11:10:09;13.75;;;6.03;;
8913;SDS011;4492;48.736;9.092;2023-06-22T11:12:35;7.13;;;5.97;;
8913;SDS011;4492;48.736;9.092;2023-06-22T11:15:00;9.65;;;6.30;;
8913;SDS011;4492;48.736;9.092;2023-06-22T11:17:26;10.32;;;6.28;;
8913;SDS011;4492;48.736;9.092;2023-06-22T11:19:52;8.48;;;6.15;;
8913;SDS011;4492;48.736;9.092;2023-06-22T11:22:17;11.32;;;6.43;;
8913;SDS011;4492;48.736;9.092;2023-06-22T11:24:42;11.00;;;6.68;;
8913;SDS011;4492;48.736;9.092;2023-06-22T11:27:08;12.15;;;6.63;;
8913;SDS011;4492;48.736;9.092;2023-06-22T11:29:34;8.38;;;6.03;;
8913;SDS011;4492;48.736;9.092;2023-06-22T11:31:59;10.68;;;6.82;;
8913;SDS011;4492;48.736;9.092;2023-06-22T11:34:25;7.90;;;6.13;;
8913;SDS011;4492;48.736;9.092;2023-06-22T11:36:51;9.32;;;6.53;;
8913;SDS011;4492;48.736;9.092;2023-06-22T11:39:16;10.63;;;6.28;;
8913;SDS011;4492;48.736;9.092;2023-06-22T11:41:42;13.00;;;6.72;;
8913;SDS011;4492;48.736;9.092;2023-06-22T11:44:07;9.75;;;5.85;;
8913;SDS011;4492;48.736;9.092;2023-06-22T11:46:33;7.13;;;6.28;;
8913;SDS011;4492;48.736;9.092;2023-06-22T11:48:59;10.35;;;6.50;;
8913;SDS011;4492;48.736;9.092;2023-06-22T11:51:25;11.02;;;6.40;;
8913;SDS011;4492;48.736;9.092;2023-06-22T11:53:51;11.73;;;6.57;;
8913;SDS011;4492;48.736;9.092;2023-06-22T11:56:16;10.23;;;6.28;;
8913;SDS011;4492;48.736;9.092;2023-06-22T11:58:41;7.18;;;6.15;;
8913;SDS011;4492;48.736;9.092;2023-06-22T12:01:07;16.55;;;7.43;;
8913;SDS011;4492;48.736;9.092;2023-06-22T12:03:33;7.55;;;5.57;;
8913;SDS011;4492;48.736;9.092;2023-06-22T12:05:59;8.13;;;5.90;;
8913;SDS011;4492;48.736;9.092;2023-06-22T12:08:24;11.10;;;6.30;;
8913;SDS011;4492;48.736;9.092;2023-06-22T12:10:50;8.18;;;5.78;;
8913;SDS011;4492;48.736;9.092;2023-06-22T12:13:16;8.48;;;6.22;;
8913;SDS011;4492;48.736;9.092;2023-06-22T12:15:41;9.32;;;6.32;;
8913;SDS011;4492;48.736;9.092;2023-06-22T12:18:07;14.23;;;6.65;;
8913;SDS011;4492;48.736;9.092;2023-06-22T12:20:34;8.93;;;6.07;;
8913;SDS011;4492;48.736;9.092;2023-06-22T12:22:59;10.65;;;6.88;;
8913;SDS011;4492;48.736;9.092;2023-06-22T12:25:25;10.80;;;6.10;;
8913;SDS011;4492;48.736;9.092;2023-06-22T12:27:50;7.68;;;6.00;;
8913;SDS011;4492;48.736;9.092;2023-06-22T12:30:16;13.68;;;6.13;;
8913;SDS011;4492;48.736;9.092;2023-06-22T12:32:41;12.73;;;5.90;;
8913;SDS011;4492;48.736;9.092;2023-06-22T12:35:07;9.13;;;6.38;;
8913;SDS011;4492;48.736;9.092;2023-06-22T12:37:38;10.05;;;6.90;;
8913;SDS011;4492;48.736;9.092;2023-06-22T12:40:07;9.07;;;6.45;;
8913;SDS011;4492;48.736;9.092;2023-06-22T12:42:34;10.38;;;6.45;;
8913;SDS011;4492;48.736;9.092;2023-06-22T12:44:59;13.00;;;7.22;;
8913;SDS011;4492;48.736;9.092;2023-06-22T12:47:25;12.88;;;6.45;;
8913;SDS011;4492;48.736;9.092;2023-06-22T12:49:50;9.45;;;6.13;;
8913;SDS011;4492;48.736;9.092;2023-06-22T12:52:16;10.40;;;7.00;;
8913;SDS011;4492;48.736;9.092;2023-06-22T12:54:41;8.10;;;6.40;;
8913;SDS011;4492;48.736;9.092;2023-06-22T12:57:07;14.20;;;7.07;;
8913;SDS011;4492;48.736;9.092;2023-06-22T12:59:32;8.90;;;6.38;;
8913;SDS011;4492;48.736;9.092;2023-06-22T13:01:58;8.68;;;6.78;;
8913;SDS011;4492;48.736;9.092;2023-06-22T13:04:23;14.85;;;7.10;;
8913;SDS011;4492;48.736;9.092;2023-06-22T13:06:49;12.52;;;7.50;;
8913;SDS011;4492;48.736;9.092;2023-06-22T13:09:15;9.27;;;6.80;;
8913;SDS011;4492;48.736;9.092;2023-06-22T13:11:41;8.55;;;7.00;;
8913;SDS011;4492;48.736;9.092;2023-06-22T13:14:07;11.73;;;7.40;;
8913;SDS011;4492;48.736;9.092;2023-06-22T13:16:33;17.73;;;6.70;;
8913;SDS011;4492;48.736;9.092;2023-06-22T13:18:58;9.93;;;7.00;;
8913;SDS011;4492;48.736;9.092;2023-06-22T13:21:24;9.05;;;7.15;;
8913;SDS011;4492;48.736;9.092;2023-06-22T13:23:49;10.10;;;6.75;;
8913;SDS011;4492;48.736;9.092;2023-06-22T13:26:15;12.35;;;7.45;;
8913;SDS011;4492;48.736;9.092;2023-06-22T13:28:40;12.82;;;7.10;;
8913;SDS011;4492;48.736;9.092;2023-06-22T13:31:06;12.90;;;6.70;;
8913;SDS011;4492;48.736;9.092;2023-06-22T13:33:31;10.93;;;6.82;;
8913;SDS011;4492;48.736;9.092;2023-06-22T13:35:57;7.13;;;5.80;;
8913;SDS011;4492;48.736;9.092;2023-06-22T13:38:22;14.38;;;6.63;;
8913;SDS011;4492;48.736;9.092;2023-06-22T13:40:48;8.13;;;6.22;;
8913;SDS011;4492;48.736;9.092;2023-06-22T13:43:14;9.38;;;5.65;;
8913;SDS011;4492;48.736;9.092;2023-06-22T13:45:40;13.43;;;6.32;;
8913;SDS011;4492;48.736;9.092;2023-06-22T13:48:06;13.10;;;5.90;;
8913;SDS011;4492;48.736;9.092;2023-06-22T13:50:32;8.70;;;6.70;;
8913;SDS011;4492;48.736;9.092;2023-06-22T13:52:58;11.52;;;6.32;;
8913;SDS011;4492;48.736;9.092;2023-06-22T13:55:23;9.27;;;5.97;;
8913;SDS011;4492;48.736;9.092;2023-06-22T13:57:49;10.80;;;6.43;;
8913;SDS011;4492;48.736;9.092;2023-06-22T14:00:16;12.43;;;6.55;;
8913;SDS011;4492;48.736;9.092;2023-06-22T14:02:42;12.45;;;6.80;;
8913;SDS011;4492;48.736;9.092;2023-06-22T14:05:07;9.02;;;6.20;;
8913;SDS011;4492;48.736;9.092;2023-06-22T14:07:33;10.95;;;6.32;;
8913;SDS011;4492;48.736;9.092;2023-06-22T14:09:59;11.77;;;6.15;;
8913;SDS011;4492;48.736;9.092;2023-06-22T14:12:25;14.35;;;5.90;;
8913;SDS011;4492;48.736;9.092;2023-06-22T14:14:51;9.38;;;5.95;;
8913;SDS011;4492;48.736;9.092;2023-06-22T14:17:17;8.82;;;6.22;;
8913;SDS011;4492;48.736;9.092;2023-06-22T14:19:48;10.10;;;5.80;;
8913;SDS011;4492;48.736;9.092;2023-06-22T14:22:14;12.10;;;5.85;;
8913;SDS011;4492;48.736;9.092;2023-06-22T14:24:39;11.57;;;6.10;;
8913;SDS011;4492;48.736;9.092;2023-06-22T14:27:05;12.80;;;5.82;;
8913;SDS011;4492;48.736;9.092;2023-06-22T14:29:33;7.70;;;5.43;;
8913;SDS011;4492;48.736;9.092;2023-06-22T14:31:59;11.25;;;5.78;;
8913;SDS011;4492;48.736;9.092;2023-06-22T14:34:24;10.50;;;4.88;;
8913;SDS011;4492;48.736;9.092;2023-06-22T14:36:50;11.65;;;5.00;;
8913;SDS011;4492;48.736;9.092;2023-06-22T14:39:15;12.73;;;5.60;;
8913;SDS011;4492;48.736;9.092;2023-06-22T14:41:41;9.80;;;4.65;;
8913;SDS011;4492;48.736;9.092;2023-06-22T14:44:06;12.73;;;4.55;;
8913;SDS011;4492;48.736;9.092;2023-06-22T14:46:32;6.40;;;4.30;;
8913;SDS011;4492;48.736;9.092;2023-06-22T14:48:57;12.23;;;4.75;;
8913;SDS011;4492;48.736;9.092;2023-06-22T14:51:23;10.63;;;4.40;;
8913;SDS011;4492;48.736;9.092;2023-06-22T14:53:48;13.27;;;4.07;;
8913;SDS011;4492;48.736;9.092;2023-06-22T14:56:14;10.20;;;3.85;;
8913;SDS011;4492;48.736;9.092;2023-06-22T14:58:40;11.52;;;4.45;;
8913;SDS011;4492;48.736;9.092;2023-06-22T15:01:10;11.77;;;4.00;;
8913;SDS011;4492;48.736;9.092;2023-06-22T15:03:36;10.65;;;3.90;;
8913;SDS011;4492;48.736;9.092;2023-06-22T15:06:02;12.30;;;4.22;;
8913;SDS011;4492;48.736;9.092;2023-06-22T15:08:28;14.10;;;4.03;;